createdAt,value
2022-08-26T00:00:51.475Z,17.43
2022-08-26T00:01:51.391Z,17.42
2022-08-26T00:02:51.378Z,17.4
2022-08-26T00:03:51.535Z,17.42
2022-08-26T00:04:52.094Z,17.43
2022-08-26T00:05:51.509Z,17.43
2022-08-26T00:06:51.638Z,17.44
2022-08-26T00:07:51.684Z,17.45
2022-08-26T00:08:51.563Z,17.46
2022-08-26T00:09:54.341Z,17.46
2022-08-26T00:10:52.571Z,17.46
2022-08-26T00:11:52.828Z,17.47
2022-08-26T00:12:52.425Z,17.49
2022-08-26T00:13:52.305Z,17.47
2022-08-26T00:14:52.303Z,17.48
2022-08-26T00:15:52.299Z,17.51
2022-08-26T00:16:52.695Z,17.49
2022-08-26T00:17:52.875Z,17.51
2022-08-26T00:18:52.526Z,17.52
2022-08-26T00:19:52.291Z,17.52
2022-08-26T00:20:52.408Z,17.52
2022-08-26T00:21:52.396Z,17.5
2022-08-26T00:22:52.274Z,17.5
2022-08-26T00:23:52.405Z,17.51
2022-08-26T00:24:52.435Z,17.51
2022-08-26T00:25:52.632Z,17.5
2022-08-26T00:26:52.579Z,17.5
2022-08-26T00:27:52.910Z,17.49
2022-08-26T00:28:52.542Z,17.5
2022-08-26T00:29:52.548Z,17.5
2022-08-26T00:30:52.668Z,17.52
2022-08-26T00:31:52.681Z,17.51
2022-08-26T00:32:53.084Z,17.52
2022-08-26T00:33:52.510Z,17.49
2022-08-26T00:34:52.594Z,17.51
2022-08-26T00:35:52.561Z,17.54
2022-08-26T00:36:52.587Z,17.56
2022-08-26T00:37:53.081Z,17.54
2022-08-26T00:38:52.698Z,17.54
2022-08-26T00:39:52.597Z,17.53
2022-08-26T00:40:54.320Z,17.52
2022-08-26T00:41:52.698Z,17.51
2022-08-26T00:42:52.705Z,17.52
2022-08-26T00:43:53.284Z,17.51
2022-08-26T00:44:52.696Z,17.49
2022-08-26T00:46:56.717Z,17.5
2022-08-26T00:48:00.628Z,17.47
2022-08-26T00:49:02.909Z,17.49
2022-08-26T00:50:01.810Z,17.47
2022-08-26T00:51:09.857Z,17.42
2022-08-26T00:52:03.621Z,17.45
2022-08-26T00:53:04.976Z,17.43
2022-08-26T00:54:10.843Z,17.41
2022-08-26T00:55:09.357Z,17.4
2022-08-26T00:56:08.136Z,17.42
2022-08-26T00:57:16.235Z,17.42
2022-08-26T00:58:08.662Z,17.43
2022-08-26T00:59:10.990Z,17.43
2022-08-26T01:00:11.373Z,17.4
2022-08-26T01:01:10.036Z,17.36
2022-08-26T01:02:08.526Z,17.32
2022-08-26T01:03:12.775Z,17.3
2022-08-26T01:04:13.811Z,17.28
2022-08-26T01:05:12.640Z,17.25
2022-08-26T01:06:13.679Z,17.22
2022-08-26T01:07:12.544Z,17.27
2022-08-26T01:08:12.505Z,17.25
2022-08-26T01:09:12.995Z,17.21
2022-08-26T01:10:14.907Z,17.21
2022-08-26T01:11:12.828Z,17.2
2022-08-26T01:12:13.608Z,17.2
2022-08-26T01:13:13.014Z,17.17
2022-08-26T01:14:13.479Z,17.18
2022-08-26T01:16:15.713Z,17.15
2022-08-26T01:17:14.724Z,17.08
2022-08-26T01:18:14.881Z,17.09
2022-08-26T01:19:23.743Z,17.12
2022-08-26T01:22:21.743Z,17.09
2022-08-26T01:23:18.515Z,17.12
2022-08-26T01:24:18.585Z,17.1
2022-08-26T01:25:19.294Z,17.09
2022-08-26T01:27:21.811Z,17.05
2022-08-26T01:28:25.376Z,17.01
2022-08-26T01:29:22.250Z,17.01
2022-08-26T01:30:21.985Z,16.97
2022-08-26T01:31:24.110Z,16.95
2022-08-26T01:32:23.406Z,16.96
2022-08-26T01:33:28.871Z,16.95
2022-08-26T01:34:32.975Z,16.95
2022-08-26T01:35:29.506Z,16.94
2022-08-26T01:36:30.662Z,16.98
2022-08-26T01:37:33.225Z,16.95
2022-08-26T01:38:31.543Z,16.94
2022-08-26T01:39:31.241Z,16.86
2022-08-26T01:40:31.358Z,16.9
2022-08-26T01:41:30.515Z,16.87
2022-08-26T01:42:30.037Z,16.88
2022-08-26T01:43:31.496Z,16.84
2022-08-26T01:44:32.538Z,16.86
2022-08-26T01:45:32.598Z,16.84
2022-08-26T01:46:30.280Z,16.83
2022-08-26T01:47:31.592Z,16.83
2022-08-26T01:48:31.357Z,16.87
2022-08-26T01:49:29.954Z,16.89
2022-08-26T01:50:32.602Z,16.91
2022-08-26T01:51:30.622Z,16.89
2022-08-26T01:52:31.478Z,16.79
2022-08-26T01:53:30.329Z,16.73
2022-08-26T01:54:30.048Z,16.69
2022-08-26T01:55:33.121Z,16.66
2022-08-26T01:56:33.299Z,16.7
2022-08-26T01:57:34.286Z,16.69
2022-08-26T01:58:36.718Z,16.66
2022-08-26T01:59:33.662Z,16.64
2022-08-26T02:00:34.356Z,16.66
2022-08-26T02:01:33.749Z,16.69
2022-08-26T02:02:33.256Z,16.68
2022-08-26T02:03:33.867Z,16.64
2022-08-26T02:04:38.490Z,16.62
2022-08-26T02:05:35.316Z,16.64
2022-08-26T02:06:36.578Z,16.63
2022-08-26T02:07:35.391Z,16.62
2022-08-26T02:08:38.569Z,16.62
2022-08-26T02:09:41.373Z,16.61
2022-08-26T02:10:38.169Z,16.58
2022-08-26T02:11:38.225Z,16.55
2022-08-26T02:12:39.298Z,16.59
2022-08-26T02:14:44.025Z,16.6
2022-08-26T02:15:42.867Z,16.63
2022-08-26T02:16:43.033Z,16.59
2022-08-26T02:17:43.349Z,16.59
2022-08-26T02:18:41.819Z,16.56
2022-08-26T02:19:42.322Z,16.62
2022-08-26T02:20:41.205Z,16.62
2022-08-26T02:21:41.384Z,16.61
2022-08-26T02:22:41.747Z,16.61
2022-08-26T02:23:41.864Z,16.62
2022-08-26T02:24:50.929Z,16.58
2022-08-26T02:26:44.758Z,16.57
2022-08-26T02:27:43.902Z,16.59
2022-08-26T02:29:49.063Z,16.57
2022-08-26T02:30:47.308Z,16.55
2022-08-26T02:31:46.884Z,16.54
2022-08-26T02:32:46.909Z,16.52
2022-08-26T02:33:47.252Z,16.5
2022-08-26T02:34:47.292Z,16.49
2022-08-26T02:35:46.898Z,16.48
2022-08-26T02:36:46.968Z,16.47
2022-08-26T02:37:46.943Z,16.46
2022-08-26T02:38:47.089Z,16.44
2022-08-26T02:39:47.039Z,16.44
2022-08-26T02:40:46.926Z,16.43
2022-08-26T02:41:46.889Z,16.41
2022-08-26T02:42:47.005Z,16.41
2022-08-26T02:43:46.937Z,16.42
2022-08-26T02:44:46.956Z,16.4
2022-08-26T02:45:47.280Z,16.41
2022-08-26T02:46:47.455Z,16.4
2022-08-26T02:47:48.299Z,16.4
2022-08-26T02:48:46.983Z,16.43
2022-08-26T02:49:47.247Z,16.36
2022-08-26T02:50:47.755Z,16.41
2022-08-26T02:51:47.362Z,16.42
2022-08-26T02:52:47.050Z,16.42
2022-08-26T02:53:47.101Z,16.4
2022-08-26T02:54:47.171Z,16.42
2022-08-26T02:55:47.102Z,16.39
2022-08-26T02:56:47.284Z,16.37
2022-08-26T02:57:47.366Z,16.36
2022-08-26T02:58:47.226Z,16.35
2022-08-26T02:59:47.118Z,16.4
2022-08-26T03:00:53.438Z,16.39
2022-08-26T03:01:50.796Z,16.42
2022-08-26T03:02:50.788Z,16.45
2022-08-26T03:03:51.082Z,16.39
2022-08-26T03:04:57.975Z,16.42
2022-08-26T03:05:54.160Z,16.41
2022-08-26T03:06:55.401Z,16.41
2022-08-26T03:07:54.026Z,16.37
2022-08-26T03:08:53.988Z,16.41
2022-08-26T03:09:53.922Z,16.39
2022-08-26T03:10:53.908Z,16.4
2022-08-26T03:11:53.974Z,16.39
2022-08-26T03:12:53.981Z,16.38
2022-08-26T03:13:53.965Z,16.38
2022-08-26T03:14:53.808Z,16.42
2022-08-26T03:15:54.018Z,16.41
2022-08-26T03:16:54.524Z,16.43
2022-08-26T03:17:55.007Z,16.41
2022-08-26T03:18:54.015Z,16.4
2022-08-26T03:19:57.190Z,16.44
2022-08-26T03:20:54.019Z,16.4
2022-08-26T03:21:57.909Z,16.45
2022-08-26T03:22:56.119Z,16.43
2022-08-26T03:23:54.722Z,16.38
2022-08-26T03:24:55.266Z,16.4
2022-08-26T03:25:55.177Z,16.38
2022-08-26T03:26:55.309Z,16.4
2022-08-26T03:27:55.305Z,16.43
2022-08-26T03:28:55.803Z,16.46
2022-08-26T03:29:55.352Z,16.4
2022-08-26T03:30:55.765Z,16.4
2022-08-26T03:31:55.421Z,16.41
2022-08-26T03:32:55.368Z,16.4
2022-08-26T03:33:59.115Z,16.4
2022-08-26T03:34:56.488Z,16.46
2022-08-26T03:35:56.746Z,16.39
2022-08-26T03:36:56.496Z,16.36
2022-08-26T03:37:56.570Z,16.4
2022-08-26T03:38:56.820Z,16.38
2022-08-26T03:39:56.418Z,16.4
2022-08-26T03:40:56.486Z,16.39
2022-08-26T03:41:56.527Z,16.36
2022-08-26T03:42:56.937Z,16.35
2022-08-26T03:44:01.428Z,16.35
2022-08-26T03:44:58.268Z,16.33
2022-08-26T03:45:58.256Z,16.36
2022-08-26T03:46:58.455Z,16.29
2022-08-26T03:47:58.613Z,16.3
2022-08-26T03:48:58.607Z,16.3
2022-08-26T03:49:58.355Z,16.31
2022-08-26T03:50:58.302Z,16.37
2022-08-26T03:51:58.452Z,16.33
2022-08-26T03:52:58.424Z,16.37
2022-08-26T03:53:58.715Z,16.27
2022-08-26T03:54:58.462Z,16.3
2022-08-26T03:55:58.393Z,16.28
2022-08-26T03:56:58.499Z,16.28
2022-08-26T03:57:58.804Z,16.29
2022-08-26T03:58:58.616Z,16.27
2022-08-26T03:59:58.625Z,16.26
2022-08-26T04:00:58.635Z,16.25
2022-08-26T04:01:58.545Z,16.19
2022-08-26T04:02:58.728Z,16.18
2022-08-26T04:04:00.200Z,16.22
2022-08-26T04:04:58.546Z,16.2
2022-08-26T04:05:58.828Z,16.19
2022-08-26T04:06:59.402Z,16.22
2022-08-26T04:07:58.593Z,16.23
2022-08-26T04:09:00.376Z,16.2
2022-08-26T04:09:58.871Z,16.29
2022-08-26T04:10:58.708Z,16.17
2022-08-26T04:11:58.671Z,16.2
2022-08-26T04:12:59.455Z,16.18
2022-08-26T04:14:04.041Z,16.19
2022-08-26T04:15:00.453Z,16.23
2022-08-26T04:16:00.859Z,16.21
2022-08-26T04:17:00.441Z,16.28
2022-08-26T04:18:00.538Z,16.29
2022-08-26T04:19:00.985Z,16.28
2022-08-26T04:20:00.680Z,16.28
2022-08-26T04:21:00.625Z,16.26
2022-08-26T04:22:00.715Z,16.27
2022-08-26T04:23:00.773Z,16.25
2022-08-26T04:24:03.582Z,16.23
2022-08-26T04:25:00.758Z,16.21
2022-08-26T04:26:01.244Z,16.18
2022-08-26T04:27:00.758Z,16.25
2022-08-26T04:28:00.745Z,16.26
2022-08-26T04:29:01.105Z,16.29
2022-08-26T04:30:00.948Z,16.25
2022-08-26T04:31:00.953Z,16.27
2022-08-26T04:32:00.868Z,16.34
2022-08-26T04:33:00.827Z,16.32
2022-08-26T04:34:00.997Z,16.36
2022-08-26T04:35:01.029Z,16.31
2022-08-26T04:36:04.068Z,16.29
2022-08-26T04:37:01.264Z,16.27
2022-08-26T04:38:01.102Z,16.21
2022-08-26T04:39:01.903Z,16.26
2022-08-26T04:40:01.051Z,16.25
2022-08-26T04:41:01.119Z,16.29
2022-08-26T04:42:01.672Z,16.25
2022-08-26T04:43:00.992Z,16.29
2022-08-26T04:44:02.333Z,16.31
2022-08-26T04:45:01.117Z,16.34
2022-08-26T04:46:02.911Z,16.33
2022-08-26T04:47:00.898Z,16.3
2022-08-26T04:48:01.071Z,16.35
2022-08-26T04:49:01.070Z,16.35
2022-08-26T04:50:01.923Z,16.32
2022-08-26T04:51:01.284Z,16.41
2022-08-26T04:52:01.083Z,16.4
2022-08-26T04:53:01.853Z,16.38
2022-08-26T04:54:01.343Z,16.41
2022-08-26T04:55:01.180Z,16.36
2022-08-26T04:56:01.261Z,16.37
2022-08-26T04:57:01.189Z,16.42
2022-08-26T04:58:01.388Z,16.41
2022-08-26T04:59:02.006Z,16.44
2022-08-26T05:00:01.256Z,16.51
2022-08-26T05:01:01.615Z,16.48
2022-08-26T05:02:01.439Z,16.46
2022-08-26T05:03:01.337Z,16.48
2022-08-26T05:04:01.707Z,16.52
2022-08-26T05:05:01.774Z,16.56
2022-08-26T05:06:04.150Z,16.57
2022-08-26T05:07:02.316Z,16.6
2022-08-26T05:08:01.595Z,16.62
2022-08-26T05:09:01.678Z,16.64
2022-08-26T05:10:02.100Z,16.65
2022-08-26T05:11:04.041Z,16.63
2022-08-26T05:12:02.515Z,16.64
2022-08-26T05:13:02.379Z,16.6
2022-08-26T05:14:02.586Z,16.66
2022-08-26T05:15:02.363Z,16.65
2022-08-26T05:16:03.990Z,16.7
2022-08-26T05:17:02.426Z,16.67
2022-08-26T05:18:06.601Z,16.63
2022-08-26T05:19:03.881Z,16.62
2022-08-26T05:20:04.246Z,16.69
2022-08-26T05:21:04.535Z,16.74
2022-08-26T05:22:03.857Z,16.68
2022-08-26T05:23:03.897Z,16.66
2022-08-26T05:24:04.149Z,16.71
2022-08-26T05:25:04.152Z,16.66
2022-08-26T05:26:07.452Z,16.67
2022-08-26T05:27:04.643Z,16.73
2022-08-26T05:28:08.598Z,16.77
2022-08-26T05:29:08.130Z,16.75
2022-08-26T05:30:08.833Z,16.81
2022-08-26T05:31:15.513Z,16.83
2022-08-26T05:32:09.309Z,16.93
2022-08-26T05:33:09.596Z,16.89
2022-08-26T05:34:09.395Z,16.86
2022-08-26T05:35:09.410Z,16.83
2022-08-26T05:36:10.537Z,16.82
2022-08-26T05:37:09.386Z,16.85
2022-08-26T05:38:14.141Z,16.91
2022-08-26T05:39:10.894Z,16.89
2022-08-26T05:40:11.094Z,16.9
2022-08-26T05:41:14.896Z,16.94
2022-08-26T05:42:13.197Z,16.93
2022-08-26T05:43:13.946Z,16.91
2022-08-26T05:44:14.356Z,16.88
2022-08-26T05:45:13.266Z,16.93
2022-08-26T05:46:14.142Z,16.91
2022-08-26T05:47:13.260Z,16.94
2022-08-26T05:48:14.168Z,16.94
2022-08-26T05:49:14.180Z,16.98
2022-08-26T05:50:13.325Z,17.11
2022-08-26T05:51:13.644Z,17.05
2022-08-26T05:52:13.373Z,17.08
2022-08-26T05:53:15.145Z,17.1
2022-08-26T05:54:14.477Z,16.98
2022-08-26T05:55:18.274Z,17.07
2022-08-26T05:56:18.302Z,16.98
2022-08-26T05:57:18.554Z,16.98
2022-08-26T05:58:18.812Z,17.03
2022-08-26T05:59:24.147Z,17.1
2022-08-26T06:00:21.433Z,17.21
2022-08-26T06:01:23.657Z,17.06
2022-08-26T06:02:21.542Z,17.05
2022-08-26T06:03:21.456Z,17.11
2022-08-26T06:04:21.871Z,17.12
2022-08-26T06:05:21.407Z,17.11
2022-08-26T06:06:28.542Z,17.18
2022-08-26T06:07:26.244Z,17.11
2022-08-26T06:08:26.181Z,17.12
2022-08-26T06:09:26.230Z,17.06
2022-08-26T06:10:33.326Z,17.08
2022-08-26T06:11:30.957Z,17.12
2022-08-26T06:12:30.027Z,17.09
2022-08-26T06:13:31.882Z,17.12
2022-08-26T06:14:30.009Z,17.13
2022-08-26T06:15:30.126Z,17.08
2022-08-26T06:16:30.336Z,17.11
2022-08-26T06:17:31.161Z,17.13
2022-08-26T06:18:31.865Z,17.14
2022-08-26T06:19:32.645Z,17.15
2022-08-26T06:20:31.327Z,17.19
2022-08-26T06:21:31.544Z,17.2
2022-08-26T06:22:30.145Z,17.23
2022-08-26T06:23:30.258Z,17.17
2022-08-26T06:24:30.294Z,17.24
2022-08-26T06:25:30.256Z,17.22
2022-08-26T06:26:30.635Z,17.17
2022-08-26T06:27:32.634Z,17.26
2022-08-26T06:28:30.279Z,17.29
2022-08-26T06:29:34.973Z,17.3
2022-08-26T06:30:33.552Z,17.32
2022-08-26T06:31:33.569Z,17.29
2022-08-26T06:32:32.786Z,17.29
2022-08-26T06:33:33.210Z,17.38
2022-08-26T06:34:32.817Z,17.37
2022-08-26T06:35:36.810Z,17.38
2022-08-26T06:36:33.665Z,17.38
2022-08-26T06:37:33.278Z,17.39
2022-08-26T06:38:33.557Z,17.28
2022-08-26T06:39:33.597Z,17.39
2022-08-26T06:40:33.660Z,17.33
2022-08-26T06:41:34.319Z,17.31
2022-08-26T06:42:33.388Z,17.26
2022-08-26T06:43:33.430Z,17.33
2022-08-26T06:44:33.433Z,17.34
2022-08-26T06:45:33.439Z,17.32
2022-08-26T06:46:33.735Z,17.18
2022-08-26T06:47:33.553Z,17.18
2022-08-26T06:48:33.604Z,17.25
2022-08-26T06:49:33.567Z,17.3
2022-08-26T06:50:34.460Z,17.45
2022-08-26T06:51:35.313Z,17.29
2022-08-26T06:52:33.577Z,17.31
2022-08-26T06:53:33.578Z,17.21
2022-08-26T06:54:33.511Z,17.18
2022-08-26T06:55:34.002Z,17.18
2022-08-26T06:56:41.217Z,17.21
2022-08-26T06:57:37.807Z,17.22
2022-08-26T06:58:38.900Z,17.2
2022-08-26T06:59:37.752Z,17.24
2022-08-26T07:00:38.123Z,17.23
2022-08-26T07:01:38.666Z,17.22
2022-08-26T07:02:39.748Z,17.33
2022-08-26T07:03:39.964Z,17.4
2022-08-26T07:04:39.688Z,17.3
2022-08-26T07:05:39.812Z,17.29
2022-08-26T07:06:40.658Z,17.34
2022-08-26T07:07:39.956Z,17.31
2022-08-26T07:08:39.813Z,17.35
2022-08-26T07:09:39.891Z,17.42
2022-08-26T07:10:39.847Z,17.38
2022-08-26T07:11:39.890Z,17.35
2022-08-26T07:12:39.870Z,17.46
2022-08-26T07:13:39.934Z,17.49
2022-08-26T07:14:40.028Z,17.55
2022-08-26T07:15:41.694Z,17.64
2022-08-26T07:16:40.889Z,17.69
2022-08-26T07:17:40.530Z,17.55
2022-08-26T07:18:41.107Z,17.49
2022-08-26T07:19:40.526Z,17.43
2022-08-26T07:20:40.432Z,17.48
2022-08-26T07:21:40.536Z,17.55
2022-08-26T07:22:40.695Z,17.47
2022-08-26T07:23:40.770Z,17.47
2022-08-26T07:24:40.616Z,17.44
2022-08-26T07:25:41.558Z,17.46
2022-08-26T07:26:43.006Z,17.5
2022-08-26T07:27:40.498Z,17.49
2022-08-26T07:28:40.635Z,17.54
2022-08-26T07:29:40.946Z,17.62
2022-08-26T07:30:41.211Z,17.59
2022-08-26T07:31:42.404Z,17.43
2022-08-26T07:32:40.662Z,17.44
2022-08-26T07:33:41.330Z,17.46
2022-08-26T07:34:41.906Z,17.48
2022-08-26T07:35:40.643Z,17.52
2022-08-26T07:36:40.701Z,17.49
2022-08-26T07:37:40.819Z,17.48
2022-08-26T07:38:41.679Z,17.5
2022-08-26T07:39:41.563Z,17.56
2022-08-26T07:40:41.029Z,17.47
2022-08-26T07:41:40.839Z,17.45
2022-08-26T07:42:40.866Z,17.5
2022-08-26T07:43:40.966Z,17.45
2022-08-26T07:44:41.933Z,17.47
2022-08-26T07:45:40.891Z,17.63
2022-08-26T07:46:41.303Z,17.75
2022-08-26T07:47:41.206Z,17.74
2022-08-26T07:48:40.952Z,17.63
2022-08-26T07:49:42.822Z,17.65
2022-08-26T07:50:49.572Z,17.68
2022-08-26T07:51:47.237Z,17.67
2022-08-26T07:52:48.013Z,17.66
2022-08-26T07:53:47.920Z,17.71
2022-08-26T07:54:48.823Z,17.59
2022-08-26T07:55:49.457Z,17.71
2022-08-26T07:56:49.019Z,17.71
2022-08-26T07:57:49.012Z,17.78
2022-08-26T07:58:51.831Z,17.73
2022-08-26T07:59:48.884Z,17.88
2022-08-26T08:00:48.878Z,17.98
2022-08-26T08:01:49.138Z,17.9
2022-08-26T08:02:49.037Z,17.95
2022-08-26T08:03:50.526Z,17.96
2022-08-26T08:04:49.019Z,17.92
2022-08-26T08:05:48.966Z,17.97
2022-08-26T08:06:49.066Z,17.98
2022-08-26T08:07:49.248Z,18.02
2022-08-26T08:08:50.867Z,18.04
2022-08-26T08:09:50.149Z,17.97
2022-08-26T08:10:50.123Z,18.05
2022-08-26T08:11:50.062Z,17.95
2022-08-26T08:12:50.761Z,18.01
2022-08-26T08:13:56.013Z,18.03
2022-08-26T08:14:53.207Z,18.02
2022-08-26T08:15:53.110Z,18.03
2022-08-26T08:16:54.631Z,18.06
2022-08-26T08:17:54.761Z,17.98
2022-08-26T08:18:55.303Z,18.11
2022-08-26T08:19:54.288Z,18.23
2022-08-26T08:21:04.864Z,18.23
2022-08-26T08:21:58.108Z,18.22
2022-08-26T08:22:58.174Z,18.24
2022-08-26T08:23:58.370Z,18.18
2022-08-26T08:24:58.154Z,18.14
2022-08-26T08:26:01.703Z,18.18
2022-08-26T08:26:59.176Z,18.21
2022-08-26T08:27:58.711Z,18.18
2022-08-26T08:28:58.676Z,18.26
2022-08-26T08:29:58.852Z,18.12
2022-08-26T08:30:59.255Z,18.13
2022-08-26T08:31:59.266Z,18.17
2022-08-26T08:32:58.770Z,18.16
2022-08-26T08:33:58.809Z,18.22
2022-08-26T08:34:58.829Z,18.37
2022-08-26T08:35:59.173Z,18.28
2022-08-26T08:36:58.820Z,18.26
2022-08-26T08:37:58.819Z,18.27
2022-08-26T08:38:58.875Z,18.31
2022-08-26T08:39:59.181Z,18.35
2022-08-26T08:40:58.876Z,18.53
2022-08-26T08:43:04.213Z,18.45
2022-08-26T08:44:01.737Z,18.51
2022-08-26T08:45:03.211Z,18.61
2022-08-26T08:46:04.925Z,18.87
2022-08-26T08:47:04.771Z,18.95
2022-08-26T08:48:10.210Z,19.01
2022-08-26T08:49:03.048Z,19.1
2022-08-26T08:52:17.304Z,19.9
2022-08-26T08:54:14.170Z,19.58
2022-08-26T08:55:18.059Z,19.62
2022-08-26T08:57:31.654Z,19.58
2022-08-26T08:58:27.339Z,19.33
2022-08-26T08:59:31.417Z,19.16
2022-08-26T09:00:30.430Z,19.15
2022-08-26T09:01:37.220Z,19.35
2022-08-26T09:02:33.853Z,19.33
2022-08-26T09:03:38.270Z,19.36
2022-08-26T09:05:39.009Z,19.44
2022-08-26T09:06:37.819Z,19.28
2022-08-26T09:08:39.980Z,19.27
2022-08-26T09:09:41.723Z,19.48
2022-08-26T09:11:44.368Z,19.48
2022-08-26T09:12:45.838Z,19.29
2022-08-26T09:13:47.502Z,19.23
2022-08-26T09:14:46.496Z,19.45
2022-08-26T09:21:02.095Z,19.35
2022-08-26T09:21:59.690Z,19.72
2022-08-26T09:22:58.617Z,19.79
2022-08-26T09:23:58.841Z,20.18
2022-08-26T09:24:58.889Z,20.26
2022-08-26T09:26:03.292Z,20.5
2022-08-26T09:27:01.049Z,20.56
2022-08-26T09:28:01.156Z,20.79
2022-08-26T09:29:02.533Z,20.85
2022-08-26T09:30:01.326Z,20.67
2022-08-26T09:33:10.833Z,20.15
2022-08-26T09:36:20.283Z,20.22
2022-08-26T09:38:23.372Z,20.55
2022-08-26T09:39:29.105Z,20.56
2022-08-26T09:40:30.424Z,20.62
2022-08-26T09:41:31.753Z,20.29
2022-08-26T09:42:28.756Z,20.4
2022-08-26T09:43:29.300Z,20.65
2022-08-26T09:44:28.805Z,20.73
2022-08-26T09:45:28.820Z,20.71
2022-08-26T09:46:29.198Z,20.86
2022-08-26T09:48:36.081Z,21.23
2022-08-26T09:49:36.315Z,21.01
2022-08-26T09:51:36.493Z,20.78
2022-08-26T09:52:36.663Z,20.49
2022-08-26T09:54:38.080Z,20.37
2022-08-26T09:55:38.271Z,20.15
2022-08-26T09:56:39.216Z,20.27
2022-08-26T09:57:48.129Z,20.54
2022-08-26T09:58:41.850Z,20.79
2022-08-26T09:59:40.092Z,21.4
2022-08-26T10:00:42.444Z,21.17
2022-08-26T10:01:42.428Z,20.85
2022-08-26T10:02:41.289Z,20.7
2022-08-26T10:03:45.308Z,20.52
2022-08-26T10:04:55.338Z,20.62
2022-08-26T10:06:59.698Z,20.89
2022-08-26T10:07:57.480Z,21.14
2022-08-26T10:09:00.087Z,21.08
2022-08-26T10:09:57.263Z,21.57
2022-08-26T10:10:59.286Z,21.78
2022-08-26T10:11:59.006Z,21.57
2022-08-26T10:13:09.676Z,21.68
2022-08-26T10:14:04.568Z,21.89
2022-08-26T10:15:04.299Z,21.85
2022-08-26T10:16:14.846Z,22.25
2022-08-26T10:19:12.084Z,22.07
2022-08-26T10:20:22.685Z,21.84
2022-08-26T10:21:14.134Z,21.41
2022-08-26T10:22:20.727Z,21.54
2022-08-26T10:23:18.700Z,21.27
2022-08-26T10:24:22.101Z,21.16
2022-08-26T10:25:21.912Z,21.19
2022-08-26T10:29:27.598Z,21.54
2022-08-26T10:31:28.374Z,22.02
2022-08-26T10:33:30.987Z,21.5
2022-08-26T10:34:32.123Z,21.11
2022-08-26T10:35:31.261Z,21.01
2022-08-26T10:36:42.945Z,20.95
2022-08-26T10:37:36.579Z,21.25
2022-08-26T10:38:35.465Z,21.48
2022-08-26T10:41:42.861Z,21.26
2022-08-26T10:42:43.420Z,21.59
2022-08-26T10:43:45.937Z,21.93
2022-08-26T10:44:45.980Z,22.17
2022-08-26T10:45:51.801Z,22.41
2022-08-26T10:46:51.443Z,22.06
2022-08-26T10:47:56.085Z,22.08
2022-08-26T10:49:00.026Z,21.76
2022-08-26T10:50:03.231Z,21.36
2022-08-26T10:51:01.089Z,21.62
2022-08-26T10:52:15.202Z,21.58
2022-08-26T10:57:23.949Z,21.73
2022-08-26T11:00:21.909Z,21.74
2022-08-26T11:05:32.879Z,21.96
2022-08-26T11:06:33.002Z,22.26
2022-08-26T11:08:45.372Z,22.06
2022-08-26T11:09:43.144Z,22.01
2022-08-26T11:11:44.200Z,21.9
2022-08-26T11:14:58.822Z,22.32
2022-08-26T11:15:58.036Z,21.86
2022-08-26T11:16:54.479Z,21.61
2022-08-26T11:18:54.250Z,22.01
2022-08-26T11:20:01.587Z,22.41
2022-08-26T11:20:54.221Z,22.13
2022-08-26T11:24:00.847Z,22.22
2022-08-26T11:25:02.153Z,22.06
2022-08-26T11:27:02.076Z,22.12
2022-08-26T11:28:02.257Z,21.89
2022-08-26T11:29:03.161Z,21.85
2022-08-26T11:30:04.533Z,22.02
2022-08-26T11:31:02.466Z,22.68
2022-08-26T11:32:02.630Z,22.67
2022-08-26T11:33:02.314Z,22.29
2022-08-26T11:34:03.189Z,22.17
2022-08-26T11:35:04.191Z,22.05
2022-08-26T11:36:12.071Z,22.16
2022-08-26T11:37:12.150Z,21.91
2022-08-26T11:38:21.689Z,21.81
2022-08-26T11:40:14.950Z,22.42
2022-08-26T11:41:20.927Z,22.4
2022-08-26T11:42:27.622Z,22.47
2022-08-26T11:43:21.707Z,22.34
2022-08-26T11:44:21.872Z,22.4
2022-08-26T11:45:28.379Z,22.22
2022-08-26T11:48:30.918Z,22
2022-08-26T11:49:28.889Z,22.23
2022-08-26T11:50:28.730Z,22.08
2022-08-26T11:51:27.677Z,22.08
2022-08-26T11:52:27.421Z,22.15
2022-08-26T11:53:28.681Z,22.1
2022-08-26T11:54:35.700Z,22.42
2022-08-26T11:55:33.933Z,22.45
2022-08-26T11:56:34.043Z,22.01
2022-08-26T11:57:40.517Z,21.96
2022-08-26T11:58:41.837Z,22.27
2022-08-26T11:59:39.356Z,22.28
2022-08-26T12:01:43.535Z,22.14
2022-08-26T12:02:40.803Z,22.23
2022-08-26T12:04:45.732Z,23.14
2022-08-26T12:05:43.940Z,22.86
2022-08-26T12:07:48.865Z,22.63
2022-08-26T12:08:46.936Z,22.26
2022-08-26T12:10:46.055Z,23.06
2022-08-26T12:11:46.265Z,23.29
2022-08-26T12:12:54.186Z,23.17
2022-08-26T12:13:54.175Z,22.84
2022-08-26T12:15:04.988Z,22.79
2022-08-26T12:15:56.273Z,23.09
2022-08-26T12:16:53.380Z,23.07
2022-08-26T12:17:54.340Z,23.11
2022-08-26T12:18:53.209Z,23.06
2022-08-26T12:19:53.469Z,23.09
2022-08-26T12:20:53.566Z,23.01
2022-08-26T12:22:01.085Z,22.85
2022-08-26T12:22:53.285Z,22.6
2022-08-26T12:23:54.855Z,23.03
2022-08-26T12:24:55.524Z,23.11
2022-08-26T12:26:02.225Z,23.36
2022-08-26T12:28:02.710Z,22.93
2022-08-26T12:29:12.864Z,22.92
2022-08-26T12:30:04.912Z,23.41
2022-08-26T12:31:10.218Z,23.56
2022-08-26T12:32:12.921Z,23.49
2022-08-26T12:33:22.396Z,23.62
2022-08-26T12:34:06.295Z,23.54
2022-08-26T12:35:09.869Z,23.68
2022-08-26T12:36:09.472Z,23.57
2022-08-26T12:37:10.907Z,23.65
2022-08-26T12:38:10.402Z,23.62
2022-08-26T12:39:13.827Z,23.46
2022-08-26T12:41:10.438Z,23.83
2022-08-26T12:46:25.585Z,23.68
2022-08-26T12:47:35.161Z,24.14
2022-08-26T12:49:27.465Z,23.41
2022-08-26T12:50:30.374Z,23.41
2022-08-26T12:51:29.184Z,23.16
2022-08-26T12:52:30.098Z,22.89
2022-08-26T12:53:31.918Z,22.86
2022-08-26T12:54:28.465Z,23.04
2022-08-26T12:56:35.580Z,22.98
2022-08-26T12:57:36.552Z,22.61
2022-08-26T12:58:38.085Z,22.65
2022-08-26T12:59:35.151Z,22.65
2022-08-26T13:00:36.617Z,22.61
2022-08-26T13:01:39.714Z,22.46
2022-08-26T13:02:38.173Z,22.21
2022-08-26T13:03:41.825Z,22.24
2022-08-26T13:04:40.400Z,22.16
2022-08-26T13:05:38.681Z,22.21
2022-08-26T13:06:38.843Z,22.58
2022-08-26T13:07:38.825Z,22.52
2022-08-26T13:08:42.278Z,22.42
2022-08-26T13:09:39.414Z,22.32
2022-08-26T13:10:40.799Z,22.26
2022-08-26T13:12:40.818Z,22.2
2022-08-26T13:13:40.826Z,22.55
2022-08-26T13:14:40.794Z,22.94
2022-08-26T13:15:40.919Z,23
2022-08-26T13:16:41.209Z,23.24
2022-08-26T13:17:40.884Z,23.76
2022-08-26T13:18:40.897Z,23.93
2022-08-26T13:19:40.970Z,23.76
2022-08-26T13:20:42.098Z,23.63
2022-08-26T13:21:43.887Z,23.8
2022-08-26T13:23:42.599Z,23.68
2022-08-26T13:24:42.397Z,23.85
2022-08-26T13:25:41.023Z,23.94
2022-08-26T13:26:41.866Z,24.01
2022-08-26T13:27:40.947Z,23.8
2022-08-26T13:28:41.077Z,23.72
2022-08-26T13:29:41.020Z,23.42
2022-08-26T13:30:44.416Z,23.33
2022-08-26T13:31:42.261Z,23.24
2022-08-26T13:32:41.335Z,22.89
2022-08-26T13:33:41.666Z,23
2022-08-26T13:34:41.437Z,23.28
2022-08-26T13:35:41.144Z,23.4
2022-08-26T13:36:41.207Z,23.05
2022-08-26T13:37:41.290Z,23.06
2022-08-26T13:38:41.308Z,23.23
2022-08-26T13:39:41.606Z,23.07
2022-08-26T13:40:43.156Z,23.24
2022-08-26T13:41:41.787Z,23.19
2022-08-26T13:42:43.857Z,23.12
2022-08-26T13:43:46.635Z,23.04
2022-08-26T13:44:46.786Z,23.21
2022-08-26T13:45:46.634Z,23.1
2022-08-26T13:46:46.727Z,22.87
2022-08-26T13:47:47.075Z,22.89
2022-08-26T13:48:46.918Z,22.97
2022-08-26T13:49:46.663Z,22.78
2022-08-26T13:50:47.077Z,22.93
2022-08-26T13:51:46.724Z,23.19
2022-08-26T13:52:46.650Z,23.3
2022-08-26T13:53:46.670Z,22.92
2022-08-26T13:54:46.686Z,22.97
2022-08-26T13:55:46.686Z,23.34
2022-08-26T13:56:46.700Z,23.34
2022-08-26T13:57:46.724Z,23.2
2022-08-26T13:58:47.278Z,23.24
2022-08-26T13:59:46.755Z,23.08
2022-08-26T14:00:46.925Z,23.11
2022-08-26T14:01:46.762Z,22.86
2022-08-26T14:02:47.210Z,22.67
2022-08-26T14:03:46.923Z,22.55
2022-08-26T14:04:46.743Z,22.58
2022-08-26T14:05:46.876Z,22.65
2022-08-26T14:06:46.882Z,22.58
2022-08-26T14:07:46.885Z,22.57
2022-08-26T14:08:47.921Z,22.6
2022-08-26T14:09:47.089Z,22.6
2022-08-26T14:11:54.144Z,22.7
2022-08-26T14:12:52.084Z,22.68
2022-08-26T14:13:52.175Z,22.62
2022-08-26T14:14:51.646Z,22.74
2022-08-26T14:15:52.868Z,22.84
2022-08-26T14:16:59.606Z,22.91
2022-08-26T14:17:52.359Z,22.76
2022-08-26T14:18:52.157Z,22.89